• Join FlightAware (Why Join?)
  • Login
  • US Flag 
 
10:07PM EST


 

Airport Tracker/Info


-or-


 

Live Flight TrackerFlight Track Log ✈ AAL2345 ✈ 07-Jun-2013 ✈ KORD - KDFW

Flight Track Log - Related Links

Times and Time Zones

All times are in EDT time to prevent confusion due to time zone crossing. See the AAL2345 flight status page for this flight to view local times or setup timezone preferences in your user account.

Time Position Orientation Groundspeed Altitude Reporting Facility
EDT Latitude Longitude Course Direction KTS MPH feet Rate Location/Type
06:53PM 41.9667 -87.8667 207° Southwest 178 205 2,200  Level Chicago TRACON
06:54PM 41.9244 -87.8200 141° Southeast 212 244 3,500 2,040 Climbing Chicago Center
06:55PM 41.7445 -88.1871 201° Southwest  Level Estimated
06:55PM 41.8575 -87.8483 197° South 272 313 6,300  Level Chicago Center
06:56PM 41.6653 -88.2802 197° South  Level Estimated
06:56PM 41.7947 -87.9108 217° Southwest 283 326 9,500  Level Chicago Center
06:57PM 41.5682 -88.2256 157° South  Level FlightAware Approximate
06:57PM 41.7067 -87.9661 205° Southwest 293 337 12,700  Level Chicago Center
06:58PM 41.4896 -88.3192 207° Southwest  Level Estimated
06:58PM 41.6317 -88.0206 208° Southwest 307 353 15,100  Level Chicago Center
06:59PM 41.5544 -88.0731 207° Southwest 314 361 17,500 1,920 Climbing Chicago Center
07:00PM 41.4789 -88.1286 209° Southwest 317 365 19,100 1,500 Climbing Chicago Center
07:01PM 41.3736 -88.1942 205° Southwest 365 420 20,600 1,620 Climbing Chicago Center
07:02PM 41.2747 -88.2378 198° South 381 438 22,500 1,140 Climbing Chicago Center
07:03PM 41.1739 -88.2839 199° South 386 444 23,000 600 Climbing Chicago Center
07:04PM 41.0531 -88.3389 199° South 385 443 23,800 1,020 Climbing Chicago Center
07:05PM 40.9450 -88.3856 198° South 404 465 25,200 1,440 Climbing Chicago Center
07:06PM 40.8358 -88.4342 199° South 413 475 26,800 1,320 Climbing Chicago Center
07:07PM 40.7242 -88.4844 199° South 423 487 28,000 1,200 Climbing Chicago Center
07:08PM 40.6108 -88.5358 199° South 431 496 29,400 960 Climbing Chicago Center
07:10PM 40.4739 -88.5967 199° South 435 501 30,000 240 Climbing Chicago Center
07:11PM 40.3797 -88.6378 198° South 431 496 30,000 -60 Level Chicago Center
07:12PM 40.2567 -88.7269 209° Southwest 426 490 29,900 -60 Descending Chicago Center
07:13PM 40.1650 -88.8233 219° Southwest 421 484 29,900  Level Chicago Center
07:14PM 40.0725 -88.9175 218° Southwest 419 482 29,900  Level Chicago Center
07:15PM 39.9786 -89.0122 218° Southwest 424 488 30,000  Climbing Chicago Center
07:16PM 39.8858 -89.1086 219° Southwest 425 489 30,000  Level Chicago Center
07:17PM 39.8100 -89.1847 218° Southwest 424 488 30,000  Level Kansas City Center
07:18PM 39.7172 -89.2786 218° Southwest 422 486 30,000  Level Kansas City Center
07:19PM 39.6181 -89.3794 218° Southwest 422 486 30,000  Level Kansas City Center
07:20PM 39.5258 -89.4739 218° Southwest 423 487 30,000  Level Kansas City Center
07:21PM 39.4328 -89.5661 217° Southwest 422 486 30,000  Level Kansas City Center
07:22PM 39.3400 -89.6600 218° Southwest 423 487 30,000  Level Kansas City Center
07:23PM 39.2289 -89.7708 218° Southwest 422 486 30,000  Level Kansas City Center
07:24PM 39.1356 -89.8656 218° Southwest 423 487 30,000  Level Kansas City Center
07:25PM 39.0353 -89.9644 217° Southwest 423 487 30,000  Level Kansas City Center
07:26PM 38.9556 -90.0586 223° Southwest 424 488 30,000  Level Kansas City Center
07:27PM 38.8639 -90.1872 228° Southwest 417 480 30,000  Level Kansas City Center
07:28PM 38.7819 -90.2983 227° Southwest 423 487 30,000  Level Kansas City Center
07:29PM 38.6992 -90.4100 226° Southwest 427 491 30,000  Level Kansas City Center
07:30PM 38.6150 -90.5225 226° Southwest 434 499 30,000  Level Kansas City Center
07:31PM 38.5294 -90.6375 226° Southwest 441 507 30,000  Level Kansas City Center
07:32PM 38.4350 -90.7647 227° Southwest 444 511 30,000  Level Kansas City Center
07:33PM 38.3486 -90.8803 226° Southwest 450 518 30,000 420 Level Kansas City Center
07:34PM 38.2608 -90.9964 226° Southwest 455 524 30,900 960 Climbing Kansas City Center
07:35PM 38.1756 -91.1103 226° Southwest 450 518 32,000 480 Climbing Kansas City Center
07:36PM 38.0819 -91.2331 226° Southwest 436 502 32,000  Level Kansas City Center
07:37PM 37.9978 -91.3467 227° Southwest 439 505 32,000  Level Kansas City Center
07:38PM 37.9111 -91.4603 226° Southwest 444 511 32,000  Level Kansas City Center
07:39PM 37.8242 -91.5736 226° Southwest 445 512 32,000  Level Kansas City Center
07:40PM 37.7361 -91.6889 226° Southwest 449 517 32,000  Level Kansas City Center
07:41PM 37.6486 -91.8042 226° Southwest 450 518 32,000  Level Kansas City Center
07:42PM 37.5450 -91.9406 226° Southwest 446 513 32,000  Level Kansas City Center
07:43PM 37.4553 -92.0497 224° Southwest 444 511 32,000  Level Kansas City Center
07:44PM 37.3614 -92.1531 221° Southwest 444 511 32,000  Level Kansas City Center
07:45PM 37.2694 -92.2561 222° Southwest 441 507 32,000  Level Kansas City Center
07:46PM 37.1758 -92.3600 221° Southwest 444 511 32,000  Level Kansas City Center
07:48PM 37.0836 -92.4625 222° Southwest 442 509 32,000  Level Kansas City Center
07:49PM 36.9911 -92.5628 221° Southwest 438 504 32,000  Level Kansas City Center
07:50PM 36.8972 -92.6639 221° Southwest 442 509 32,000  Level Kansas City Center
07:51PM 36.7858 -92.7853 221° Southwest 440 506 32,000  Level Kansas City Center
07:52PM 36.6933 -92.8858 221° Southwest 439 505 32,000  Level Kansas City Center
07:53PM 36.5969 -92.9906 221° Southwest 443 510 32,000  Level Kansas City Center
07:54PM 36.5042 -93.0900 221° Southwest 442 509 32,000  Level Kansas City Center
07:55PM 36.4114 -93.1892 221° Southwest 442 509 32,000  Level Kansas City Center
07:55PM 36.3481 -93.2583 221° Southwest 445 512 32,000  Level Memphis Center
07:56PM 36.2433 -93.3703 221° Southwest 445 512 32,000  Level Memphis Center
07:57PM 36.1511 -93.4697 221° Southwest 445 512 32,000  Level Memphis Center
07:58PM 36.0589 -93.5664 220° Southwest 445 512 32,000  Level Memphis Center
07:59PM 35.9667 -93.6653 221° Southwest 445 512 32,000  Level Memphis Center
08:00PM 35.8722 -93.7642 220° Southwest 450 518 32,000  Level Memphis Center
08:01PM 35.7800 -93.8628 221° Southwest 450 518 32,000  Level Memphis Center
08:02PM 35.6853 -93.9608 220° Southwest 450 518 32,000  Level Memphis Center
08:03PM 35.5931 -94.0564 220° Southwest 450 518 32,000  Level Memphis Center
08:04PM 35.5003 -94.1517 220° Southwest 445 512 32,000  Level Memphis Center
08:05PM 35.4078 -94.2494 221° Southwest 445 512 32,000  Level Memphis Center
08:06PM 35.3150 -94.3469 221° Southwest 445 512 32,000  Level Memphis Center
08:07PM 35.2261 -94.4469 223° Southwest 445 512 32,000  Level Memphis Center
08:08PM 35.1311 -94.5439 220° Southwest 445 512 32,000  Level Memphis Center
08:10PM 35.0339 -94.6600 224° Southwest 436 502 32,000  Level Fort Worth Center
08:11PM 34.9503 -94.7461 220° Southwest 436 502 32,000  Level Fort Worth Center
08:12PM 34.8567 -94.8503 222° Southwest 441 507 32,000  Level Fort Worth Center
08:13PM 34.7686 -94.9439 221° Southwest 446 513 32,000 -180 Level Fort Worth Center
08:14PM 34.6747 -95.0450 222° Southwest 446 513 31,700 -480 Descending Fort Worth Center
08:15PM 34.5714 -95.1033 205° Southwest 429 494 31,100 -480 Descending Fort Worth Center
08:16PM 34.4611 -95.1189 187° South 399 459 30,800 -780 Descending Fort Worth Center
08:17PM 34.3817 -95.2142 225° Southwest 392 451 29,600 -1,320 Descending Fort Worth Center
08:18PM 34.3039 -95.3117 226° Southwest 398 458 28,200 -1,440 Descending Fort Worth Center
08:19PM 34.2303 -95.3989 224° Southwest 392 451 26,800 -1,380 Descending Fort Worth Center
08:20PM 34.1567 -95.4883 225° Southwest 392 451 25,500 -1,440 Descending Fort Worth Center
08:21PM 34.0786 -95.5831 225° Southwest 392 451 24,000 -1,500 Descending Fort Worth Center
08:22PM 34.0028 -95.6747 225° Southwest 392 451 22,600 -1,380 Descending Fort Worth Center
08:23PM 33.9247 -95.7639 223° Southwest 392 451 21,300 -1,320 Descending Fort Worth Center
08:24PM 33.8508 -95.8578 227° Southwest 392 451 20,000 -1,380 Descending Fort Worth Center
08:25PM 33.7644 -95.9619 225° Southwest 392 451 18,600 -1,320 Descending Fort Worth Center
08:26PM 33.6964 -96.0453 226° Southwest 397 457 17,400 -1,320 Descending Fort Worth Center
08:27PM 33.6139 -96.1439 225° Southwest 390 449 16,000 -1,320 Descending Fort Worth Center
08:28PM 33.5397 -96.2297 224° Southwest 396 456 14,800 -1,320 Descending Fort Worth Center
08:29PM 33.4633 -96.3253 226° Southwest 384 442 13,400 -1,200 Descending Fort Worth Center
08:30PM 33.4014 -96.3983 225° Southwest 363 418 12,500 -1,020 Descending Fort Worth Center
08:31PM 33.3247 -96.4886 225° Southwest 351 404 11,400 -780 Descending Fort Worth Center
08:32PM 33.2689 -96.5564 225° Southwest 345 397 11,000 -240 Descending Fort Worth Center
08:33PM 33.2025 -96.6364 225° Southwest 340 391 11,000  Level Fort Worth Center
08:34PM 33.1167 -96.7167 218° Southwest 331 381 11,000  Level Dallas / Fort Worth TRACON
08:35PM 33.0500 -96.8000 226° Southwest 332 382 11,000  Level Dallas / Fort Worth TRACON
08:36PM 33.0000 -96.8667 228° Southwest 256 295 11,000 -420 Level Dallas / Fort Worth TRACON
08:37PM 32.9333 -96.9000 203° Southwest 256 295 10,200 -1,500 Descending Dallas / Fort Worth TRACON
08:38PM 32.8667 -96.9000 180° South 272 313 8,100 -1,800 Descending Dallas / Fort Worth TRACON
08:39PM 32.8000 -96.9000 180° South 257 296 6,600 -1,560 Descending Dallas / Fort Worth TRACON
08:40PM 32.7333 -96.9167 192° South 242 278 5,000 -1,860 Descending Dallas / Fort Worth TRACON
08:41PM 32.7167 -96.9833 253° West 225 259 3,000 -1,140 Descending Dallas / Fort Worth TRACON
08:42PM 32.7500 -97.0167 320° Northwest 177 204 2,800 -240 Descending Dallas / Fort Worth TRACON